Time;durP1;ratioP1;P1;durP2;ratioP2;P2;SDS_P1;SDS_P2;PMS_P1;PMS_P2;Temp;Humidity;BMP_temperature;BMP_pressure;BME280_temperature;BME280_humidity;BME280_pressure;Samples;Min_cycle;Max_cycle;Signal;HPM_P1;HPM_P2
2022/08/29 00:01:04;;;;;;;8.00;3.50;;;11.40;99.90;;;;;;5072981;28;19917;-65
2022/08/29 00:03:30;;;;;;;10.27;3.08;;;11.30;99.90;;;;;;5057705;28;20529;-67
2022/08/29 00:05:55;;;;;;;;;;;11.40;99.90;;;;;;5065773;28;20045;-66
2022/08/29 00:08:21;;;;;;;12.45;3.13;;;11.40;99.90;;;;;;5063678;28;20003;-67
2022/08/29 00:10:46;;;;;;;;;;;11.30;99.90;;;;;;5063694;28;20416;-66
2022/08/29 00:13:13;;;;;;;8.27;3.08;;;11.30;99.90;;;;;;5065447;28;20359;-64
2022/08/29 00:15:40;;;;;;;8.77;2.88;;;11.30;99.90;;;;;;5075332;28;20036;-65
2022/08/29 00:18:06;;;;;;;10.13;3.13;;;11.20;99.90;;;;;;5051548;28;20123;-64
2022/08/29 00:20:34;;;;;;;8.40;2.70;;;11.20;99.90;;;;;;5045523;28;20037;-66
2022/08/29 00:23:01;;;;;;;6.70;3.00;;;11.20;99.90;;;;;;5050438;28;20587;-67
2022/08/29 00:25:27;;;;;;;10.13;2.75;;;11.20;99.90;;;;;;5049731;28;20139;-66
2022/08/29 00:27:52;;;;;;;;;;;11.20;99.90;;;;;;5050235;28;20120;-65
2022/08/29 00:30:19;;;;;;;9.18;3.22;;;11.10;99.90;;;;;;5049671;28;19917;-65
2022/08/29 00:32:45;;;;;;;6.38;2.97;;;11.20;99.90;;;;;;5048525;28;20140;-65
2022/08/29 00:35:15;;;;;;;;;;;11.10;99.90;;;;;;5048898;28;20033;-66
2022/08/29 00:37:41;;;;;;;12.27;3.17;;;11.10;99.90;;;;;;5052978;28;19963;-65
2022/08/29 00:40:11;;;;;;;10.73;3.25;;;11.00;99.90;;;;;;5048204;28;20037;-66
2022/08/29 00:42:37;;;;;;;13.15;3.55;;;11.00;99.90;;;;;;5051916;28;20124;-65
2022/08/29 00:45:04;;;;;;;;;;;11.00;99.90;;;;;;5064654;28;20468;-64
2022/08/29 00:47:33;;;;;;;11.50;3.88;;;11.00;99.90;;;;;;5051649;28;20396;-64
2022/08/29 00:50:01;;;;;;;9.57;3.08;;;10.90;99.90;;;;;;5048111;28;20528;-67
2022/08/29 00:52:33;;;;;;;6.90;3.20;;;10.80;99.90;;;;;;5049859;28;20444;-66
2022/08/29 00:55:01;;;;;;;9.15;3.42;;;10.90;99.90;;;;;;5048466;28;20112;-65
2022/08/29 00:57:30;;;;;;;9.23;3.45;;;10.90;99.90;;;;;;5049495;28;20572;-65
2022/08/29 00:59:56;;;;;;;8.73;3.20;;;10.80;99.90;;;;;;5048897;28;20044;-67
2022/08/29 01:02:22;;;;;;;7.47;3.00;;;10.80;99.90;;;;;;5048023;28;20041;-65
2022/08/29 01:04:48;;;;;;;8.27;3.17;;;10.90;99.90;;;;;;5048300;28;20043;-67
2022/08/29 01:07:14;;;;;;;;;;;10.80;99.90;;;;;;5047806;28;20124;-65
2022/08/29 01:09:42;;;;;;;9.82;3.53;;;10.70;99.90;;;;;;5047920;28;19921;-65
2022/08/29 01:12:16;;;;;;;9.35;3.50;;;10.70;99.90;;;;;;5047484;28;20136;-67
2022/08/29 01:15:13;;;;;;;11.43;3.88;;;10.60;99.90;;;;;;5052692;28;20036;-65
2022/08/29 01:17:44;;;;;;;10.13;3.47;;;10.60;99.90;;;;;;5034800;28;20618;-68
2022/08/29 01:20:41;;;;;;;8.95;3.35;;;10.60;99.90;;;;;;5047305;28;20072;-67
2022/08/29 01:23:59;;;;;;;7.50;3.15;;;10.60;99.90;;;;;;5046770;28;20037;-65
2022/08/29 01:26:28;;;;;;;13.88;3.58;;;10.60;99.90;;;;;;5007140;28;20107;-67
2022/08/29 01:28:55;;;;;;;7.80;3.55;;;10.60;99.90;;;;;;5046683;28;20144;-65
2022/08/29 01:31:24;;;;;;;7.22;2.95;;;10.70;99.90;;;;;;5047334;28;20040;-66
2022/08/29 01:33:55;;;;;;;8.50;3.15;;;10.60;99.90;;;;;;5047223;28;20044;-66
2022/08/29 01:36:43;;;;;;;9.07;3.28;;;10.60;99.90;;;;;;5048869;28;20131;-67
2022/08/29 01:39:09;;;;;;;12.60;4.18;;;10.60;99.90;;;;;;5047003;28;20120;-67
2022/08/29 01:41:34;;;;;;;;;;;10.50;99.90;;;;;;5051220;28;20212;-65
2022/08/29 01:44:07;;;;;;;9.20;3.05;;;10.60;99.90;;;;;;5056651;28;19971;-65
2022/08/29 01:46:33;;;;;;;7.25;3.25;;;10.50;99.90;;;;;;5053299;28;20139;-67
2022/08/29 01:49:02;;;;;;;10.63;3.13;;;10.40;99.90;;;;;;5048246;28;20033;-65
2022/08/29 01:51:28;;;;;;;10.15;3.42;;;10.40;99.90;;;;;;5048548;28;20033;-65
2022/08/29 01:53:54;;;;;;;7.72;3.13;;;10.40;99.90;;;;;;5046878;28;20041;-65
2022/08/29 01:56:24;;;;;;;7.85;3.55;;;10.30;99.90;;;;;;5048344;28;20043;-65
2022/08/29 01:58:52;;;;;;;6.07;2.92;;;10.30;99.90;;;;;;5047310;28;20049;-65
2022/08/29 02:01:23;;;;;;;7.47;3.05;;;10.30;99.90;;;;;;5048177;28;20040;-64
2022/08/29 02:03:49;;;;;;;8.27;3.72;;;10.30;99.90;;;;;;5045004;28;20730;-66
2022/08/29 02:06:14;;;;;;;8.05;3.67;;;10.30;99.90;;;;;;5046636;28;20055;-65
2022/08/29 02:08:41;;;;;;;;;;;10.30;99.90;;;;;;5047944;28;20517;-66
2022/08/29 02:11:09;;;;;;;8.00;3.23;;;10.20;99.90;;;;;;5046520;28;20574;-67
2022/08/29 02:13:36;;;;;;;8.35;3.75;;;10.20;99.90;;;;;;5053855;28;20801;-65
2022/08/29 02:16:04;;;;;;;9.98;3.38;;;10.10;99.90;;;;;;5057635;28;20087;-67
2022/08/29 02:18:30;;;;;;;9.55;3.80;;;10.10;99.90;;;;;;5048890;28;20040;-65
2022/08/29 02:20:56;;;;;;;7.50;3.63;;;10.10;99.90;;;;;;5047300;28;20072;-64
2022/08/29 02:23:22;;;;;;;8.43;3.33;;;10.10;99.90;;;;;;5047044;28;20048;-65
2022/08/29 02:25:48;;;;;;;;;;;10.00;99.90;;;;;;5047079;28;20040;-65
2022/08/29 02:28:16;;;;;;;10.63;3.30;;;10.00;99.90;;;;;;5048346;28;19917;-65
2022/08/29 02:30:43;;;;;;;9.13;3.60;;;10.00;99.90;;;;;;5050854;28;20049;-65
2022/08/29 02:33:09;;;;;;;6.25;3.38;;;10.00;99.90;;;;;;5046049;28;20045;-65
2022/08/29 02:35:35;;;;;;;;;;;10.00;99.90;;;;;;5046635;28;20412;-65
2022/08/29 02:38:02;;;;;;;14.07;3.50;;;9.90;99.90;;;;;;5047379;28;19947;-65
2022/08/29 02:40:28;;;;;;;6.07;3.08;;;9.90;99.90;;;;;;5046568;28;20037;-65
2022/08/29 02:42:54;;;;;;;;;;;9.90;99.90;;;;;;5044556;28;20110;-64
2022/08/29 02:45:20;;;;;;;10.80;3.30;;;9.90;99.90;;;;;;5053567;28;19979;-66
2022/08/29 02:47:47;;;;;;;11.45;3.20;;;9.90;99.90;;;;;;5047226;28;20055;-66
2022/08/29 02:50:12;;;;;;;10.80;3.47;;;9.80;99.90;;;;;;5046755;28;20504;-65
2022/08/29 02:52:39;;;;;;;;;;;9.80;99.90;;;;;;5047006;28;20041;-65
2022/08/29 02:55:07;;;;;;;6.93;3.27;;;9.80;99.90;;;;;;5045641;28;19942;-65
2022/08/29 02:57:33;;;;;;;7.93;3.60;;;9.80;99.90;;;;;;5044575;28;20371;-65
2022/08/29 02:59:58;;;;;;;;;;;9.80;99.90;;;;;;5049884;28;20564;-65
2022/08/29 03:02:24;;;;;;;10.75;4.40;;;9.90;99.90;;;;;;5044882;28;19970;-64
2022/08/29 03:04:49;;;;;;;;;;;9.80;99.90;;;;;;5046085;28;20400;-65
2022/08/29 03:07:15;;;;;;;11.55;3.05;;;9.80;99.90;;;;;;5045018;28;19924;-65
2022/08/29 03:09:40;;;;;;;;;;;9.80;99.90;;;;;;5048332;28;20052;-67
2022/08/29 03:12:06;;;;;;;8.80;3.53;;;9.80;99.90;;;;;;5046365;28;20019;-65
2022/08/29 03:14:32;;;;;;;;;;;9.80;99.90;;;;;;5054185;28;20102;-64
2022/08/29 03:16:57;;;;;;;9.95;3.20;;;9.80;99.90;;;;;;5052047;28;20011;-64
2022/08/29 03:19:23;;;;;;;;;;;9.90;99.90;;;;;;5047185;28;20048;-65
2022/08/29 03:21:49;;;;;;;6.78;2.67;;;9.90;99.90;;;;;;5046170;28;19923;-67
2022/08/29 03:24:14;;;;;;;;;;;9.90;99.90;;;;;;5046825;28;20112;-66
2022/08/29 03:26:40;;;;;;;8.68;3.13;;;9.90;99.90;;;;;;5046154;28;20384;-67
2022/08/29 03:29:06;;;;;;;;;;;9.90;99.90;;;;;;5046557;28;20037;-67
2022/08/29 03:31:31;;;;;;;7.30;2.80;;;9.80;99.90;;;;;;5051719;28;19920;-65
2022/08/29 03:33:57;;;;;;;;;;;9.90;99.90;;;;;;5046846;28;20132;-65
2022/08/29 03:36:25;;;;;;;7.13;3.33;;;9.80;99.90;;;;;;5053341;28;19920;-65
2022/08/29 03:38:51;;;;;;;9.13;2.90;;;9.80;99.90;;;;;;5047002;28;20049;-66
2022/08/29 03:41:22;;;;;;;8.70;3.45;;;9.70;99.90;;;;;;5050306;28;20052;-65
2022/08/29 03:43:48;;;;;;;7.50;2.92;;;9.70;99.90;;;;;;5053841;28;20144;-67
2022/08/29 03:46:14;;;;;;;;;;;9.70;99.90;;;;;;5055283;28;20178;-64
2022/08/29 03:48:39;;;;;;;7.05;3.10;;;9.70;99.90;;;;;;5047217;28;20272;-65
2022/08/29 03:51:05;;;;;;;;;;;9.70;99.90;;;;;;5053017;28;20025;-65
2022/08/29 03:53:33;;;;;;;6.95;3.40;;;9.70;99.90;;;;;;5049257;28;19917;-66
2022/08/29 03:55:58;;;;;;;7.68;2.83;;;9.60;99.90;;;;;;5050155;28;20083;-68
2022/08/29 03:58:24;;;;;;;;;;;9.50;99.90;;;;;;5052973;28;20036;-64
2022/08/29 04:00:50;;;;;;;13.10;3.80;;;9.50;99.90;;;;;;5055582;28;20017;-67
2022/08/29 04:03:15;;;;;;;;;;;9.50;99.90;;;;;;5049287;28;20127;-67
2022/08/29 04:05:41;;;;;;;9.05;3.47;;;9.40;99.90;;;;;;5049546;28;19921;-66
2022/08/29 04:08:07;;;;;;;13.90;4.57;;;9.50;99.90;;;;;;5049681;28;20051;-64
2022/08/29 04:10:36;;;;;;;14.55;3.33;;;9.50;99.90;;;;;;5049593;28;20037;-64
2022/08/29 04:13:03;;;;;;;6.47;3.20;;;9.40;99.90;;;;;;5049220;28;20503;-64
2022/08/29 04:15:31;;;;;;;15.50;4.65;;;9.40;99.90;;;;;;5056997;28;20393;-64
2022/08/29 04:17:59;;;;;;;6.78;3.42;;;9.40;99.90;;;;;;5049224;28;20075;-65
2022/08/29 04:20:28;;;;;;;9.05;3.13;;;9.30;99.90;;;;;;5049167;28;20032;-66
2022/08/29 04:22:55;;;;;;;11.77;4.28;;;9.30;99.90;;;;;;5048098;28;20050;-65
2022/08/29 04:25:23;;;;;;;6.15;3.28;;;9.30;99.90;;;;;;5048932;28;20051;-65
2022/08/29 04:27:53;;;;;;;17.20;3.88;;;9.30;99.90;;;;;;5048198;28;20493;-65
2022/08/29 04:30:22;;;;;;;13.38;3.90;;;9.20;99.90;;;;;;5049028;28;20045;-65
2022/08/29 04:32:48;;;;;;;14.07;3.65;;;9.30;99.90;;;;;;5049555;28;20444;-65
2022/08/29 04:35:14;;;;;;;;;;;9.20;99.90;;;;;;5049480;28;20040;-64
2022/08/29 04:37:41;;;;;;;16.70;4.30;;;9.20;99.90;;;;;;5048886;28;19920;-64
2022/08/29 04:40:12;;;;;;;7.97;3.13;;;9.20;99.90;;;;;;5055014;28;20035;-64
2022/08/29 04:42:38;;;;;;;8.70;3.08;;;9.20;99.90;;;;;;5047299;28;20099;-65
2022/08/29 04:45:11;;;;;;;9.48;3.42;;;9.20;99.90;;;;;;5064559;28;20040;-64
2022/08/29 04:47:37;;;;;;;6.65;3.33;;;9.20;99.90;;;;;;5051060;28;20045;-64
2022/08/29 04:50:05;;;;;;;6.43;3.38;;;9.10;99.90;;;;;;5049346;28;20059;-64
2022/08/29 04:52:30;;;;;;;7.68;2.85;;;9.20;99.90;;;;;;5045792;28;20040;-64
2022/08/29 04:54:56;;;;;;;;;;;9.20;99.90;;;;;;5058367;28;20044;-65
2022/08/29 04:57:23;;;;;;;7.75;3.42;;;9.30;99.90;;;;;;5046540;28;20453;-64
2022/08/29 04:59:57;;;;;;;6.55;3.28;;;9.30;99.90;;;;;;5049792;28;20044;-65
2022/08/29 05:02:24;;;;;;;6.93;3.25;;;9.40;99.90;;;;;;5048257;28;20049;-65
2022/08/29 05:04:51;;;;;;;8.60;3.55;;;9.60;99.90;;;;;;5047025;28;20123;-66
2022/08/29 05:07:21;;;;;;;10.30;3.03;;;10.00;99.90;;;;;;5041443;28;20041;-64
2022/08/29 05:09:57;;;;;;;9.50;3.60;;;10.20;99.90;;;;;;5047435;28;20033;-61
2022/08/29 05:12:24;;;;;;;13.48;4.00;;;10.40;99.90;;;;;;5047459;28;20110;-63
2022/08/29 05:14:50;;;;;;;7.57;3.70;;;10.30;99.90;;;;;;5051437;28;20124;-64
2022/08/29 05:17:16;;;;;;;8.63;3.40;;;10.30;99.90;;;;;;5046336;28;20049;-65
2022/08/29 05:19:42;;;;;;;;;;;10.20;99.90;;;;;;5049293;28;20083;-68
2022/08/29 05:22:11;;;;;;;7.80;3.00;;;10.20;99.90;;;;;;5047620;28;19916;-68
2022/08/29 05:24:37;;;;;;;10.27;3.65;;;10.20;99.90;;;;;;5056268;28;20044;-67
2022/08/29 05:27:09;;;;;;;;;;;10.50;99.90;;;;;;5054378;28;20397;-68
2022/08/29 05:29:43;;;;;;;9.65;3.50;;;10.90;99.90;;;;;;5047749;28;19920;-66
2022/08/29 05:32:10;;;;;;;11.05;3.42;;;10.90;99.90;;;;;;5046866;28;20056;-66
2022/08/29 05:34:37;;;;;;;9.02;3.83;;;10.90;99.90;;;;;;5044066;28;20047;-66
2022/08/29 05:37:05;;;;;;;12.07;4.30;;;11.00;99.90;;;;;;5047992;28;20084;-65
2022/08/29 05:39:32;;;;;;;8.88;3.97;;;11.20;99.90;;;;;;5049230;28;20060;-66
2022/08/29 05:41:58;;;;;;;8.88;3.95;;;11.20;99.90;;;;;;5049420;28;20094;-67
2022/08/29 05:44:25;;;;;;;10.07;3.53;;;11.10;99.90;;;;;;5059594;28;20090;-66
2022/08/29 05:46:50;;;;;;;6.15;2.92;;;10.90;99.90;;;;;;5054113;28;20532;-65
2022/08/29 05:49:16;;;;;;;;;;;10.80;99.90;;;;;;5047975;28;20087;-65
2022/08/29 05:51:42;;;;;;;13.77;3.28;;;10.80;99.90;;;;;;5049932;28;19947;-65
2022/08/29 05:54:07;;;;;;;;;;;10.70;99.90;;;;;;5049042;28;20037;-67
2022/08/29 05:56:33;;;;;;;9.38;3.40;;;10.80;99.90;;;;;;5047283;28;19923;-65
2022/08/29 05:58:59;;;;;;;;;;;10.80;99.90;;;;;;5046812;28;20413;-63
2022/08/29 06:01:28;;;;;;;13.68;3.92;;;10.80;99.90;;;;;;5046261;28;20304;-65
2022/08/29 06:03:54;;;;;;;7.50;3.80;;;10.80;99.90;;;;;;5048059;28;20041;-63
2022/08/29 06:06:22;;;;;;;8.85;4.07;;;10.80;99.90;;;;;;5047094;28;20047;-65
2022/08/29 06:08:48;;;;;;;8.85;3.47;;;10.80;99.90;;;;;;5047441;28;20097;-65
2022/08/29 06:11:17;;;;;;;7.72;3.15;;;10.90;99.90;;;;;;5046810;28;20528;-64
2022/08/29 06:13:42;;;;;;;11.82;3.42;;;11.20;99.90;;;;;;5051436;28;20144;-66
2022/08/29 06:16:12;;;;;;;;;;;11.70;99.90;;;;;;5046745;28;20127;-64
2022/08/29 06:18:37;;;;;;;8.45;3.15;;;12.30;99.90;;;;;;5047311;28;19921;-63
2022/08/29 06:21:04;;;;;;;;;;;12.80;99.90;;;;;;5047076;28;20439;-63
2022/08/29 06:23:30;;;;;;;9.43;2.80;;;12.80;99.90;;;;;;5042230;28;19971;-64
2022/08/29 06:25:56;;;;;;;;;;;12.60;99.90;;;;;;5047707;28;20045;-64
2022/08/29 06:28:21;;;;;;;7.53;2.80;;;12.50;99.90;;;;;;5044756;28;19924;-64
2022/08/29 06:30:47;;;;;;;;;;;12.50;99.90;;;;;;5046252;28;20491;-63
2022/08/29 06:33:12;;;;;;;9.43;3.80;;;12.70;99.90;;;;;;5052165;28;19997;-64
2022/08/29 06:35:38;;;;;;;;;;;13.10;99.90;;;;;;5046665;28;20561;-64
2022/08/29 06:38:04;;;;;;;11.57;3.47;;;13.20;99.90;;;;;;5046861;28;19923;-64
2022/08/29 06:40:29;;;;;;;;;;;13.20;99.90;;;;;;5047180;28;20041;-63
2022/08/29 06:42:55;;;;;;;15.27;3.53;;;13.20;99.90;;;;;;5043687;28;19931;-63
2022/08/29 06:45:21;;;;;;;;;;;12.90;99.90;;;;;;5053479;28;20037;-67
2022/08/29 06:47:47;;;;;;;10.05;3.25;;;12.70;99.90;;;;;;5048680;28;20452;-65
2022/08/29 06:50:13;;;;;;;;;;;12.80;99.90;;;;;;5040976;28;20037;-63
2022/08/29 06:52:38;;;;;;;6.93;2.57;;;12.80;99.90;;;;;;5047393;28;19917;-65
2022/08/29 06:55:07;;;;;;;;;;;12.90;99.90;;;;;;5046816;28;20047;-64
2022/08/29 06:57:32;;;;;;;10.52;3.05;;;13.00;99.90;;;;;;5044541;28;19921;-62
2022/08/29 06:59:58;;;;;;;;;;;13.00;99.90;;;;;;5047690;28;20037;-64
2022/08/29 07:02:24;;;;;;;9.15;3.45;;;13.10;99.90;;;;;;5045683;28;19927;-64
2022/08/29 07:04:49;;;;;;;;;;;13.30;99.90;;;;;;5046400;28;20039;-63
2022/08/29 07:07:15;;;;;;;12.63;4.35;;;13.30;99.90;;;;;;5029438;28;19925;-65
2022/08/29 07:09:40;;;;;;;;;;;13.30;99.90;;;;;;5045906;28;20382;-64
2022/08/29 07:12:06;;;;;;;11.57;3.50;;;13.30;99.90;;;;;;5044794;28;19923;-63
2022/08/29 07:14:31;;;;;;;;;;;13.30;99.90;;;;;;5049904;28;20041;-64
2022/08/29 07:16:59;;;;;;;9.70;3.15;;;13.30;99.90;;;;;;5045443;28;19974;-65
2022/08/29 07:19:25;;;;;;;14.15;3.28;;;13.20;99.90;;;;;;5047271;28;20044;-64
2022/08/29 07:21:52;;;;;;;;;;;13.30;99.90;;;;;;5045184;28;20386;-64
2022/08/29 07:24:17;;;;;;;12.63;3.13;;;13.30;99.90;;;;;;5049168;28;19920;-63
2022/08/29 07:26:43;;;;;;;;;;;13.40;99.90;;;;;;5043891;28;20084;-63
2022/08/29 07:29:14;;;;;;;10.77;3.03;;;13.50;99.90;;;;;;5048860;28;20028;-65
2022/08/29 07:31:40;;;;;;;14.65;3.38;;;13.50;99.90;;;;;;5048078;28;20063;-64
2022/08/29 07:34:06;;;;;;;;;;;13.50;99.90;;;;;;5048120;28;20336;-65
2022/08/29 07:36:32;;;;;;;14.93;3.30;;;13.60;99.90;;;;;;5050383;28;20347;-66
2022/08/29 07:38:58;;;;;;;7.32;3.10;;;13.60;99.90;;;;;;5049072;28;20497;-65
2022/08/29 07:41:24;;;;;;;;;;;13.80;99.90;;;;;;5049167;28;20048;-65
2022/08/29 07:43:50;;;;;;;11.27;3.17;;;13.90;99.90;;;;;;5057318;28;19916;-65
2022/08/29 07:46:16;;;;;;;;;;;13.90;99.90;;;;;;5055912;28;20041;-65
2022/08/29 07:48:42;;;;;;;8.38;3.03;;;14.10;99.90;;;;;;5049262;28;19994;-64
2022/08/29 07:51:10;;;;;;;13.30;3.40;;;14.10;99.90;;;;;;5049425;28;20029;-66
2022/08/29 07:53:36;;;;;;;10.98;3.00;;;14.20;99.90;;;;;;5048321;28;20041;-64
2022/08/29 07:56:18;;;;;;;6.90;2.83;;;14.20;99.90;;;;;;5050256;28;20037;-64
2022/08/29 07:58:44;;;;;;;9.68;3.00;;;14.30;99.90;;;;;;5048829;28;20037;-65
2022/08/29 08:01:09;;;;;;;;;;;14.30;99.90;;;;;;5049211;28;20045;-65
2022/08/29 08:03:35;;;;;;;10.80;2.85;;;14.40;99.90;;;;;;5049542;28;19916;-65
2022/08/29 08:06:01;;;;;;;;;;;14.50;99.90;;;;;;5050460;28;20039;-67
2022/08/29 08:08:27;;;;;;;7.82;2.22;;;14.70;99.90;;;;;;5051207;28;19962;-63
2022/08/29 08:10:52;;;;;;;;;;;14.80;99.90;;;;;;5051394;28;21694;-64
2022/08/29 08:13:19;;;;;;;10.60;3.10;;;15.10;99.90;;;;;;5054293;28;19916;-63
2022/08/29 08:15:45;;;;;;;14.77;3.17;;;15.60;99.90;;;;;;5059980;28;20207;-63
2022/08/29 08:18:10;;;;;;;;;;;16.00;99.90;;;;;;5049113;28;20953;-64
2022/08/29 08:20:36;;;;;;;11.75;3.13;;;16.60;99.90;;;;;;5049670;28;19943;-65
2022/08/29 08:23:02;;;;;;;7.53;2.80;;;17.20;98.30;;;;;;5045451;28;20483;-65
2022/08/29 08:25:28;;;;;;;8.77;2.88;;;17.50;97.00;;;;;;5057009;28;20132;-65
2022/08/29 08:27:54;;;;;;;;;;;17.60;97.40;;;;;;5049545;28;20143;-63
2022/08/29 08:30:20;;;;;;;6.72;2.30;;;17.70;97.20;;;;;;5056134;28;19916;-64
2022/08/29 08:32:46;;;;;;;;;;;17.30;96.60;;;;;;5048866;28;20043;-64
2022/08/29 08:35:11;;;;;;;8.38;2.42;;;17.10;97.10;;;;;;5055483;28;20610;-64
2022/08/29 08:37:38;;;;;;;;;;;16.80;97.00;;;;;;5049765;28;20041;-64
2022/08/29 08:40:05;;;;;;;11.48;2.47;;;16.50;98.10;;;;;;5053206;28;19938;-63
2022/08/29 08:42:42;;;;;;;7.75;2.10;;;16.40;98.10;;;;;;5047822;28;20112;-65
2022/08/29 08:45:14;;;;;;;10.38;2.67;;;16.50;98.40;;;;;;5061398;28;20052;-64
2022/08/29 08:47:49;;;;;;;11.27;2.65;;;16.40;98.30;;;;;;5050828;28;20045;-64
2022/08/29 08:50:39;;;;;;;7.53;2.33;;;16.30;98.60;;;;;;5053826;28;20040;-64
2022/08/29 08:53:11;;;;;;;8.07;3.13;;;16.30;98.30;;;;;;5048166;28;20463;-63
2022/08/29 08:55:50;;;;;;;8.25;2.17;;;16.40;99.10;;;;;;5048156;28;20044;-63
2022/08/29 08:58:33;;;;;;;8.18;2.67;;;16.30;98.60;;;;;;5049060;28;20483;-63
2022/08/29 09:01:21;;;;;;;8.98;2.40;;;16.00;99.00;;;;;;5045941;28;20056;-64
2022/08/29 09:03:54;;;;;;;11.57;3.00;;;16.00;99.90;;;;;;5045527;28;20083;-64
2022/08/29 09:06:48;;;;;;;14.95;3.22;;;16.30;99.60;;;;;;5041792;28;20044;-62
2022/08/29 09:09:25;;;;;;;12.70;3.10;;;16.30;98.90;;;;;;5048750;28;21066;-64
2022/08/29 09:12:07;;;;;;;7.88;3.22;;;16.20;99.30;;;;;;5049409;28;20537;-65
2022/08/29 09:14:51;;;;;;;7.97;2.75;;;16.40;98.60;;;;;;5055391;28;20044;-67
2022/08/29 09:17:35;;;;;;;7.65;2.53;;;16.50;98.80;;;;;;5042756;28;20041;-66
2022/08/29 09:20:05;;;;;;;9.25;3.05;;;16.50;98.20;;;;;;5048895;28;20036;-66
2022/08/29 09:22:33;;;;;;;9.77;2.42;;;16.70;98.20;;;;;;5050104;28;20041;-64
2022/08/29 09:25:05;;;;;;;7.20;2.67;;;16.70;97.20;;;;;;5048985;28;20052;-64
2022/08/29 09:27:32;;;;;;;7.72;2.25;;;16.90;97.00;;;;;;5047900;28;20040;-64
2022/08/29 09:30:14;;;;;;;6.90;2.35;;;17.20;97.30;;;;;;5047720;28;20051;-65
2022/08/29 09:33:07;;;;;;;9.20;2.28;;;17.40;95.50;;;;;;5076359;28;20055;-64
2022/08/29 09:35:48;;;;;;;5.50;1.98;;;17.40;95.90;;;;;;5073224;28;20045;-65
2022/08/29 09:38:17;;;;;;;6.95;2.40;;;17.40;95.00;;;;;;5075914;28;20499;-64
2022/08/29 09:40:51;;;;;;;13.27;2.47;;;17.30;95.10;;;;;;5073044;28;20492;-64
2022/08/29 09:43:22;;;;;;;5.03;2.28;;;17.40;94.60;;;;;;5063801;28;20712;-64
2022/08/29 09:46:11;;;;;;;5.90;2.33;;;17.50;94.50;;;;;;5066846;28;20062;-63
2022/08/29 09:48:41;;;;;;;12.80;3.85;;;17.30;95.10;;;;;;5072051;28;20044;-65
2022/08/29 09:51:30;;;;;;;8.23;2.38;;;17.20;95.50;;;;;;5080822;28;20121;-64
2022/08/29 09:54:21;;;;;;;10.75;2.55;;;17.10;94.20;;;;;;5080470;28;20470;-65
2022/08/29 09:57:17;;;;;;;5.88;1.95;;;17.10;95.20;;;;;;5075473;28;20040;-64
2022/08/29 09:59:46;;;;;;;8.85;2.33;;;17.10;96.30;;;;;;5070955;28;20039;-63
2022/08/29 10:02:42;;;;;;;8.45;2.35;;;17.20;95.90;;;;;;5070111;28;20036;-62
2022/08/29 10:05:24;;;;;;;7.60;2.42;;;17.20;96.50;;;;;;5075907;28;20043;-64
2022/08/29 10:07:51;;;;;;;10.48;2.67;;;17.40;97.00;;;;;;5072341;28;20213;-64
2022/08/29 10:10:21;;;;;;;8.25;2.53;;;17.40;96.10;;;;;;5071900;28;20611;-63
2022/08/29 10:13:01;;;;;;;11.90;3.00;;;17.40;96.50;;;;;;5075494;28;20665;-65
2022/08/29 10:15:49;;;;;;;10.23;3.35;;;17.50;95.90;;;;;;5066422;28;20060;-66
2022/08/29 10:18:26;;;;;;;13.57;2.33;;;17.50;95.70;;;;;;5067676;28;20096;-65
2022/08/29 10:21:11;;;;;;;14.27;3.10;;;17.60;94.90;;;;;;5071902;28;20119;-64
2022/08/29 10:23:59;;;;;;;9.45;2.17;;;17.80;94.50;;;;;;5068812;28;20048;-65
2022/08/29 10:26:39;;;;;;;12.15;2.45;;;18.10;94.40;;;;;;5072023;28;20052;-63
2022/08/29 10:29:30;;;;;;;5.03;2.20;;;18.30;93.80;;;;;;5075293;28;20036;-64
2022/08/29 10:32:22;;;;;;;10.50;2.53;;;18.30;92.10;;;;;;5076517;28;20146;-64
2022/08/29 10:35:23;;;;;;;11.45;2.55;;;18.20;91.80;;;;;;5076708;28;20051;-64
2022/08/29 10:38:07;;;;;;;6.47;2.25;;;18.20;93.00;;;;;;5072559;28;20044;-61
2022/08/29 10:40:50;;;;;;;6.03;2.22;;;18.30;92.30;;;;;;5062671;28;20116;-65
2022/08/29 10:43:39;;;;;;;5.90;2.28;;;18.50;92.40;;;;;;5066708;28;20028;-64
2022/08/29 10:46:17;;;;;;;5.20;2.08;;;18.70;90.90;;;;;;5067823;28;20040;-63
2022/08/29 10:49:04;;;;;;;6.07;2.45;;;18.70;90.60;;;;;;5067468;28;20679;-65
2022/08/29 10:51:45;;;;;;;4.72;2.40;;;18.90;90.30;;;;;;5066287;28;20043;-64
2022/08/29 10:54:36;;;;;;;6.97;2.25;;;18.90;88.00;;;;;;5069937;28;20052;-64
2022/08/29 10:57:03;;;;;;;7.07;2.80;;;19.00;88.10;;;;;;5066967;28;20036;-63
2022/08/29 10:59:45;;;;;;;7.53;3.10;;;18.90;84.00;;;;;;5071523;28;20040;-65
2022/08/29 11:02:14;;;;;;;33.03;3.60;;;19.00;87.70;;;;;;5064882;28;20484;-64
2022/08/29 11:04:53;;;;;;;6.60;2.20;;;19.10;90.30;;;;;;5070788;28;20589;-64
2022/08/29 11:07:33;;;;;;;8.32;2.85;;;19.20;88.10;;;;;;5067085;28;20044;-62
2022/08/29 11:10:23;;;;;;;9.50;2.58;;;19.30;87.90;;;;;;5076787;28;20106;-63
2022/08/29 11:12:57;;;;;;;5.10;2.42;;;19.60;88.00;;;;;;5074679;28;20043;-64
2022/08/29 11:15:42;;;;;;;4.40;2.63;;;19.80;87.20;;;;;;5064777;28;20070;-63
2022/08/29 11:18:19;;;;;;;5.30;2.35;;;19.60;86.20;;;;;;5073284;28;20088;-64
2022/08/29 11:21:24;;;;;;;6.45;2.50;;;19.50;85.80;;;;;;5076275;28;20044;-64
2022/08/29 11:23:49;;;;;;;6.97;3.22;;;19.70;87.30;;;;;;5064418;28;20048;-64
2022/08/29 11:26:15;;;;;;;;;;;19.70;83.90;;;;;;5084333;28;20040;-64
2022/08/29 11:29:06;;;;;;;9.52;3.28;;;19.80;85.00;;;;;;5074693;28;19922;-63
2022/08/29 11:31:31;;;;;;;5.80;2.03;;;19.40;85.90;;;;;;5069737;28;20090;-64
2022/08/29 11:34:00;;;;;;;;;;;19.80;85.50;;;;;;5075905;28;20130;-63
2022/08/29 11:36:54;;;;;;;5.28;2.78;;;19.90;84.70;;;;;;5075879;28;20269;-64
2022/08/29 11:39:45;;;;;;;5.57;2.45;;;19.80;86.00;;;;;;5075427;28;20051;-64
2022/08/29 11:42:13;;;;;;;8.93;2.53;;;19.70;84.20;;;;;;5077431;28;20565;-64
2022/08/29 11:44:51;;;;;;;9.00;2.95;;;19.60;85.60;;;;;;5067173;28;20040;-63
2022/08/29 11:47:32;;;;;;;7.63;2.50;;;19.60;86.40;;;;;;5070847;28;20044;-64
2022/08/29 11:50:16;;;;;;;10.45;2.65;;;19.70;86.10;;;;;;5076657;28;20095;-65
2022/08/29 11:53:07;;;;;;;10.38;2.65;;;19.70;86.80;;;;;;5075340;28;20540;-65
2022/08/29 11:55:35;;;;;;;5.72;1.90;;;19.80;86.90;;;;;;5079220;28;20058;-63
2022/08/29 11:58:12;;;;;;;5.45;2.50;;;19.90;87.90;;;;;;5074382;28;20040;-64
2022/08/29 12:00:57;;;;;;;6.72;2.50;;;19.80;87.20;;;;;;5075500;28;20067;-63
2022/08/29 12:03:31;;;;;;;4.85;2.60;;;19.90;88.10;;;;;;5075118;28;20028;-64
2022/08/29 12:06:23;;;;;;;6.90;2.10;;;20.00;87.30;;;;;;5075595;28;20111;-64
2022/08/29 12:09:11;;;;;;;5.45;2.05;;;19.90;88.10;;;;;;5079775;28;20028;-64
2022/08/29 12:12:07;;;;;;;9.13;2.20;;;20.00;87.10;;;;;;5069585;28;20042;-64
2022/08/29 12:14:45;;;;;;;5.45;2.42;;;20.30;86.60;;;;;;5064071;28;20044;-64
2022/08/29 12:17:23;;;;;;;6.70;2.25;;;20.30;86.80;;;;;;5075317;28;20118;-64
2022/08/29 12:19:55;;;;;;;7.10;2.00;;;20.30;87.10;;;;;;5076127;28;20045;-65
2022/08/29 12:22:46;;;;;;;6.13;2.10;;;20.30;86.60;;;;;;5071321;28;20031;-64
2022/08/29 12:25:26;;;;;;;4.57;2.22;;;20.40;86.90;;;;;;5080137;28;20028;-64
2022/08/29 12:28:07;;;;;;;11.20;2.33;;;20.40;85.50;;;;;;5079384;28;20047;-65
2022/08/29 12:30:41;;;;;;;4.85;1.90;;;20.40;83.30;;;;;;5071749;28;20117;-64
2022/08/29 12:33:18;;;;;;;10.70;1.90;;;20.20;83.30;;;;;;5078959;28;20404;-64
2022/08/29 12:36:25;;;;;;;6.38;2.15;;;20.20;83.00;;;;;;5076785;28;20048;-65
2022/08/29 12:39:06;;;;;;;3.40;2.20;;;20.30;84.40;;;;;;5051098;28;20044;-64
2022/08/29 12:41:59;;;;;;;5.32;2.00;;;20.40;83.40;;;;;;5083813;28;20170;-64
2022/08/29 12:44:40;;;;;;;5.70;2.33;;;20.50;84.00;;;;;;5070301;28;20412;-64
2022/08/29 12:47:23;;;;;;;6.82;2.50;;;20.40;83.10;;;;;;5073972;28;20677;-64
2022/08/29 12:50:02;;;;;;;6.05;1.95;;;20.10;82.80;;;;;;5084826;28;20040;-64
2022/08/29 12:52:30;;;;;;;8.55;2.95;;;20.20;85.10;;;;;;5073203;28;20046;-66
2022/08/29 12:54:59;;;;;;;5.00;2.45;;;20.30;83.00;;;;;;5084148;28;20503;-63
2022/08/29 12:57:37;;;;;;;3.53;2.00;;;20.10;82.40;;;;;;5081276;28;20055;-64
2022/08/29 13:00:12;;;;;;;6.93;2.08;;;20.30;84.20;;;;;;5081932;28;20093;-64
2022/08/29 13:02:37;;;;;;;6.15;2.00;;;20.50;81.00;;;;;;5078433;28;20047;-65
2022/08/29 13:05:16;;;;;;;;;;;20.50;80.10;;;;;;5083489;28;20036;-64
2022/08/29 13:08:11;;;;;;;3.38;1.70;;;20.50;79.90;;;;;;5078243;28;19920;-64
2022/08/29 13:10:50;;;;;;;4.85;1.95;;;20.40;78.40;;;;;;5072923;28;20044;-64
2022/08/29 13:13:19;;;;;;;5.05;2.10;;;20.10;82.50;;;;;;5073217;28;20047;-63
2022/08/29 13:15:49;;;;;;;7.10;2.05;;;19.90;83.50;;;;;;5068184;28;20063;-65
2022/08/29 13:18:15;;;;;;;5.40;2.00;;;20.30;83.60;;;;;;5078229;28;20440;-64
2022/08/29 13:20:46;;;;;;;5.05;2.08;;;20.60;82.60;;;;;;5081335;28;20045;-64
2022/08/29 13:23:11;;;;;;;5.45;2.15;;;20.80;81.90;;;;;;5081062;28;20059;-63
2022/08/29 13:25:52;;;;;;;;;;;20.80;81.70;;;;;;5076427;28;20388;-66